sensor_id;sensor_type;location;lat;lon;timestamp;pressure;altitude;pressure_sealevel;temperature;humidity
9676;BME280;4876;42.656;23.292;2024-01-25T00:01:07;94943.56;;;2.08;68.39
9676;BME280;4876;42.656;23.292;2024-01-25T00:03:32;94933.09;;;2.40;67.76
9676;BME280;4876;42.656;23.292;2024-01-25T00:05:58;94928.41;;;2.48;66.62
9676;BME280;4876;42.656;23.292;2024-01-25T00:08:23;94929.75;;;2.55;66.62
9676;BME280;4876;42.656;23.292;2024-01-25T00:10:49;94916.25;;;2.57;67.08
9676;BME280;4876;42.656;23.292;2024-01-25T00:13:14;94920.88;;;2.62;67.85
9676;BME280;4876;42.656;23.292;2024-01-25T00:15:40;94913.53;;;2.36;68.54
9676;BME280;4876;42.656;23.292;2024-01-25T00:18:05;94908.34;;;2.04;70.89
9676;BME280;4876;42.656;23.292;2024-01-25T00:20:31;94886.00;;;2.13;69.85
9676;BME280;4876;42.656;23.292;2024-01-25T00:22:57;94867.09;;;2.23;70.35
9676;BME280;4876;42.656;23.292;2024-01-25T00:25:22;94837.56;;;2.50;69.02
9676;BME280;4876;42.656;23.292;2024-01-25T00:27:48;94814.47;;;2.37;68.56
9676;BME280;4876;42.656;23.292;2024-01-25T00:30:13;94814.13;;;2.41;68.65
9676;BME280;4876;42.656;23.292;2024-01-25T00:32:39;94812.22;;;2.28;69.37
9676;BME280;4876;42.656;23.292;2024-01-25T00:35:05;94815.94;;;2.38;66.57
9676;BME280;4876;42.656;23.292;2024-01-25T00:37:31;94815.75;;;2.36;66.99
9676;BME280;4876;42.656;23.292;2024-01-25T00:39:57;94823.59;;;2.40;67.33
9676;BME280;4876;42.656;23.292;2024-01-25T00:42:23;94828.78;;;2.51;67.33
9676;BME280;4876;42.656;23.292;2024-01-25T00:44:49;94848.72;;;2.31;68.03
9676;BME280;4876;42.656;23.292;2024-01-25T00:47:16;94845.28;;;1.68;70.24
9676;BME280;4876;42.656;23.292;2024-01-25T00:49:42;94846.53;;;1.88;70.26
9676;BME280;4876;42.656;23.292;2024-01-25T00:52:08;94822.31;;;2.13;68.71
9676;BME280;4876;42.656;23.292;2024-01-25T00:54:34;94819.97;;;2.17;68.43
9676;BME280;4876;42.656;23.292;2024-01-25T00:57:00;94820.31;;;2.34;67.86
9676;BME280;4876;42.656;23.292;2024-01-25T00:59:26;94829.06;;;2.40;68.81
9676;BME280;4876;42.656;23.292;2024-01-25T01:01:52;94831.09;;;2.39;69.15
9676;BME280;4876;42.656;23.292;2024-01-25T01:04:19;94825.47;;;2.45;68.00
9676;BME280;4876;42.656;23.292;2024-01-25T01:06:45;94823.31;;;2.51;68.42
9676;BME280;4876;42.656;23.292;2024-01-25T01:09:13;94837.66;;;1.95;69.26
9676;BME280;4876;42.656;23.292;2024-01-25T01:11:38;94834.28;;;2.02;68.31
9676;BME280;4876;42.656;23.292;2024-01-25T01:14:04;94830.59;;;2.20;69.18
9676;BME280;4876;42.656;23.292;2024-01-25T01:16:29;94835.50;;;2.22;68.85
9676;BME280;4876;42.656;23.292;2024-01-25T01:18:58;94822.81;;;2.32;68.77
9676;BME280;4876;42.656;23.292;2024-01-25T01:21:30;94824.47;;;2.35;68.38
9676;BME280;4876;42.656;23.292;2024-01-25T01:23:56;94813.56;;;2.14;70.38
9676;BME280;4876;42.656;23.292;2024-01-25T01:26:21;94783.13;;;1.90;71.39
9676;BME280;4876;42.656;23.292;2024-01-25T01:28:47;94759.78;;;1.47;73.02
9676;BME280;4876;42.656;23.292;2024-01-25T01:31:12;94773.09;;;1.71;72.66
9676;BME280;4876;42.656;23.292;2024-01-25T01:33:38;94775.50;;;1.96;71.65
9676;BME280;4876;42.656;23.292;2024-01-25T01:36:04;94765.00;;;2.07;71.14
9676;BME280;4876;42.656;23.292;2024-01-25T01:38:29;94769.13;;;1.72;70.96
9676;BME280;4876;42.656;23.292;2024-01-25T01:40:55;94761.50;;;1.99;71.00
9676;BME280;4876;42.656;23.292;2024-01-25T01:43:21;94749.13;;;2.34;70.18
9676;BME280;4876;42.656;23.292;2024-01-25T01:45:49;94751.72;;;2.75;70.76
9676;BME280;4876;42.656;23.292;2024-01-25T01:48:15;94738.94;;;3.36;70.16
9676;BME280;4876;42.656;23.292;2024-01-25T01:50:41;94742.25;;;4.25;68.14
9676;BME280;4876;42.656;23.292;2024-01-25T01:53:07;94735.13;;;4.85;66.38
9676;BME280;4876;42.656;23.292;2024-01-25T01:55:32;94730.28;;;5.40;63.47
9676;BME280;4876;42.656;23.292;2024-01-25T01:57:59;94735.72;;;5.55;62.79
9676;BME280;4876;42.656;23.292;2024-01-25T02:00:25;94737.03;;;5.72;62.38
9676;BME280;4876;42.656;23.292;2024-01-25T02:02:51;94741.13;;;5.95;61.15
9676;BME280;4876;42.656;23.292;2024-01-25T02:05:17;94732.19;;;6.12;60.59
9676;BME280;4876;42.656;23.292;2024-01-25T02:07:42;94707.91;;;6.18;59.81
9676;BME280;4876;42.656;23.292;2024-01-25T02:10:09;94718.25;;;6.27;60.07
9676;BME280;4876;42.656;23.292;2024-01-25T02:12:35;94718.44;;;6.29;60.74
9676;BME280;4876;42.656;23.292;2024-01-25T02:15:01;94723.47;;;6.40;60.66
9676;BME280;4876;42.656;23.292;2024-01-25T02:17:26;94725.31;;;6.38;59.56
9676;BME280;4876;42.656;23.292;2024-01-25T02:19:52;94724.13;;;6.48;60.46
9676;BME280;4876;42.656;23.292;2024-01-25T02:22:19;94730.84;;;6.55;59.85
9676;BME280;4876;42.656;23.292;2024-01-25T02:24:44;94733.63;;;6.55;59.56
9676;BME280;4876;42.656;23.292;2024-01-25T02:27:10;94737.19;;;6.65;60.13
9676;BME280;4876;42.656;23.292;2024-01-25T02:29:35;94723.41;;;6.65;59.41
9676;BME280;4876;42.656;23.292;2024-01-25T02:32:02;94720.72;;;6.74;59.99
9676;BME280;4876;42.656;23.292;2024-01-25T02:34:28;94717.91;;;6.82;59.21
9676;BME280;4876;42.656;23.292;2024-01-25T02:36:53;94726.41;;;6.59;58.35
9676;BME280;4876;42.656;23.292;2024-01-25T02:39:19;94729.50;;;6.22;58.47
9676;BME280;4876;42.656;23.292;2024-01-25T02:41:44;94732.09;;;6.20;58.32
9676;BME280;4876;42.656;23.292;2024-01-25T02:44:11;94727.94;;;5.94;59.16
9676;BME280;4876;42.656;23.292;2024-01-25T02:46:37;94712.75;;;5.85;59.43
9676;BME280;4876;42.656;23.292;2024-01-25T02:49:03;94708.97;;;5.73;60.78
9676;BME280;4876;42.656;23.292;2024-01-25T02:51:29;94705.09;;;5.51;59.85
9676;BME280;4876;42.656;23.292;2024-01-25T02:53:55;94698.75;;;5.41;60.04
9676;BME280;4876;42.656;23.292;2024-01-25T02:56:20;94702.09;;;5.32;61.28
9676;BME280;4876;42.656;23.292;2024-01-25T02:58:46;94720.91;;;5.43;62.43
9676;BME280;4876;42.656;23.292;2024-01-25T03:01:11;94712.91;;;5.63;62.80
9676;BME280;4876;42.656;23.292;2024-01-25T03:03:37;94712.41;;;5.81;63.34
9676;BME280;4876;42.656;23.292;2024-01-25T03:06:06;94717.13;;;6.13;62.43
9676;BME280;4876;42.656;23.292;2024-01-25T03:08:31;94716.09;;;6.26;62.46
9676;BME280;4876;42.656;23.292;2024-01-25T03:10:57;94713.91;;;6.41;61.85
9676;BME280;4876;42.656;23.292;2024-01-25T03:13:22;94708.16;;;6.47;61.49
9676;BME280;4876;42.656;23.292;2024-01-25T03:15:48;94704.28;;;6.50;62.28
9676;BME280;4876;42.656;23.292;2024-01-25T03:18:13;94703.16;;;6.53;62.11
9676;BME280;4876;42.656;23.292;2024-01-25T03:20:39;94713.59;;;6.54;61.55
9676;BME280;4876;42.656;23.292;2024-01-25T03:23:04;94701.94;;;6.63;60.97
9676;BME280;4876;42.656;23.292;2024-01-25T03:25:30;94702.00;;;6.56;61.87
9676;BME280;4876;42.656;23.292;2024-01-25T03:27:56;94699.50;;;6.50;62.82
9676;BME280;4876;42.656;23.292;2024-01-25T03:30:22;94694.16;;;6.52;62.19
9676;BME280;4876;42.656;23.292;2024-01-25T03:32:47;94686.44;;;6.51;61.40
9676;BME280;4876;42.656;23.292;2024-01-25T03:35:13;94677.84;;;6.47;61.32
9676;BME280;4876;42.656;23.292;2024-01-25T03:37:38;94691.06;;;6.48;61.55
9676;BME280;4876;42.656;23.292;2024-01-25T03:40:04;94674.22;;;6.44;61.75
9676;BME280;4876;42.656;23.292;2024-01-25T03:42:30;94673.00;;;6.55;59.84
9676;BME280;4876;42.656;23.292;2024-01-25T03:44:56;94646.16;;;6.55;61.03
9676;BME280;4876;42.656;23.292;2024-01-25T03:47:21;94654.09;;;6.51;60.64
9676;BME280;4876;42.656;23.292;2024-01-25T03:49:47;94662.84;;;6.57;60.40
9676;BME280;4876;42.656;23.292;2024-01-25T03:52:12;94672.91;;;6.62;60.15
9676;BME280;4876;42.656;23.292;2024-01-25T03:54:38;94667.53;;;6.64;59.59
9676;BME280;4876;42.656;23.292;2024-01-25T03:57:04;94644.94;;;6.66;59.69
9676;BME280;4876;42.656;23.292;2024-01-25T03:59:30;94634.31;;;6.62;59.08
9676;BME280;4876;42.656;23.292;2024-01-25T04:01:55;94628.97;;;6.64;59.79
9676;BME280;4876;42.656;23.292;2024-01-25T04:04:21;94630.28;;;6.63;58.44
9676;BME280;4876;42.656;23.292;2024-01-25T04:06:46;94633.91;;;6.66;59.43
9676;BME280;4876;42.656;23.292;2024-01-25T04:09:12;94652.22;;;6.71;60.46
9676;BME280;4876;42.656;23.292;2024-01-25T04:11:39;94639.25;;;6.64;59.81
9676;BME280;4876;42.656;23.292;2024-01-25T04:14:05;94638.69;;;6.65;59.87
9676;BME280;4876;42.656;23.292;2024-01-25T04:16:31;94629.44;;;6.70;59.25
9676;BME280;4876;42.656;23.292;2024-01-25T04:18:57;94633.72;;;6.81;59.83
9676;BME280;4876;42.656;23.292;2024-01-25T04:21:22;94643.63;;;6.84;58.91
9676;BME280;4876;42.656;23.292;2024-01-25T04:23:48;94634.13;;;6.77;58.74
9676;BME280;4876;42.656;23.292;2024-01-25T04:26:14;94628.22;;;6.81;58.02
9676;BME280;4876;42.656;23.292;2024-01-25T04:28:40;94637.66;;;6.88;58.30
9676;BME280;4876;42.656;23.292;2024-01-25T04:31:06;94632.25;;;6.80;58.10
9676;BME280;4876;42.656;23.292;2024-01-25T04:33:31;94628.34;;;6.83;57.53
9676;BME280;4876;42.656;23.292;2024-01-25T04:35:57;94636.72;;;6.75;57.52
9676;BME280;4876;42.656;23.292;2024-01-25T04:38:22;94637.88;;;6.72;57.27
9676;BME280;4876;42.656;23.292;2024-01-25T04:40:48;94648.75;;;6.70;57.53
9676;BME280;4876;42.656;23.292;2024-01-25T04:43:13;94656.06;;;6.58;57.79
9676;BME280;4876;42.656;23.292;2024-01-25T04:45:39;94667.09;;;6.58;58.28
9676;BME280;4876;42.656;23.292;2024-01-25T04:48:05;94679.94;;;6.56;56.99
9676;BME280;4876;42.656;23.292;2024-01-25T04:50:31;94672.25;;;6.54;56.41
9676;BME280;4876;42.656;23.292;2024-01-25T04:52:56;94678.09;;;6.58;57.31
9676;BME280;4876;42.656;23.292;2024-01-25T04:55:22;94674.63;;;6.58;56.45
9676;BME280;4876;42.656;23.292;2024-01-25T04:57:47;94688.69;;;6.62;56.01
9676;BME280;4876;42.656;23.292;2024-01-25T05:00:15;94686.19;;;6.56;55.99
9676;BME280;4876;42.656;23.292;2024-01-25T05:02:41;94699.06;;;6.54;56.37
9676;BME280;4876;42.656;23.292;2024-01-25T05:05:07;94703.47;;;6.57;55.35
9676;BME280;4876;42.656;23.292;2024-01-25T05:07:32;94699.50;;;6.50;54.75
9676;BME280;4876;42.656;23.292;2024-01-25T05:09:58;94697.78;;;6.55;55.17
9676;BME280;4876;42.656;23.292;2024-01-25T05:12:24;94701.38;;;6.48;55.22
9676;BME280;4876;42.656;23.292;2024-01-25T05:14:49;94695.44;;;6.34;54.95
9676;BME280;4876;42.656;23.292;2024-01-25T05:17:15;94704.03;;;6.38;55.06
9676;BME280;4876;42.656;23.292;2024-01-25T05:19:40;94717.25;;;6.40;54.19
9676;BME280;4876;42.656;23.292;2024-01-25T05:22:06;94715.94;;;6.41;55.65
9676;BME280;4876;42.656;23.292;2024-01-25T05:24:33;94742.94;;;6.42;55.52
9676;BME280;4876;42.656;23.292;2024-01-25T05:26:59;94730.84;;;6.38;55.10
9676;BME280;4876;42.656;23.292;2024-01-25T05:29:24;94743.41;;;6.31;55.43
9676;BME280;4876;42.656;23.292;2024-01-25T05:31:50;94737.53;;;6.27;55.17
9676;BME280;4876;42.656;23.292;2024-01-25T05:34:15;94751.97;;;6.18;55.73
9676;BME280;4876;42.656;23.292;2024-01-25T05:36:41;94747.19;;;6.19;55.71
9676;BME280;4876;42.656;23.292;2024-01-25T05:39:09;94740.28;;;6.10;55.38
9676;BME280;4876;42.656;23.292;2024-01-25T05:41:35;94751.59;;;6.14;54.79
9676;BME280;4876;42.656;23.292;2024-01-25T05:44:00;94746.84;;;6.14;55.58
9676;BME280;4876;42.656;23.292;2024-01-25T05:46:26;94758.75;;;6.17;56.12
9676;BME280;4876;42.656;23.292;2024-01-25T05:48:51;94757.63;;;6.20;55.83
9676;BME280;4876;42.656;23.292;2024-01-25T05:51:17;94762.63;;;6.14;55.99
9676;BME280;4876;42.656;23.292;2024-01-25T05:53:43;94763.44;;;6.07;56.04
9676;BME280;4876;42.656;23.292;2024-01-25T05:56:08;94770.94;;;6.06;56.86
9676;BME280;4876;42.656;23.292;2024-01-25T05:58:34;94781.06;;;6.04;57.12
9676;BME280;4876;42.656;23.292;2024-01-25T06:00:59;94783.81;;;6.04;56.72
9676;BME280;4876;42.656;23.292;2024-01-25T06:03:25;94778.22;;;5.94;57.15
9676;BME280;4876;42.656;23.292;2024-01-25T06:05:50;94776.56;;;5.91;57.15
9676;BME280;4876;42.656;23.292;2024-01-25T06:08:16;94782.59;;;5.97;56.42
9676;BME280;4876;42.656;23.292;2024-01-25T06:10:42;94795.28;;;5.93;57.63
9676;BME280;4876;42.656;23.292;2024-01-25T06:13:08;94782.09;;;5.84;57.52
9676;BME280;4876;42.656;23.292;2024-01-25T06:15:34;94794.38;;;5.90;57.80
9676;BME280;4876;42.656;23.292;2024-01-25T06:18:00;94804.69;;;5.90;57.38
9676;BME280;4876;42.656;23.292;2024-01-25T06:20:25;94802.13;;;5.84;58.17
9676;BME280;4876;42.656;23.292;2024-01-25T06:22:51;94801.03;;;5.80;57.45
9676;BME280;4876;42.656;23.292;2024-01-25T06:25:16;94785.94;;;5.88;57.64
9676;BME280;4876;42.656;23.292;2024-01-25T06:27:42;94801.34;;;5.91;57.75
9676;BME280;4876;42.656;23.292;2024-01-25T06:30:08;94778.28;;;5.87;57.69
9676;BME280;4876;42.656;23.292;2024-01-25T06:32:34;94784.44;;;5.95;57.87
9676;BME280;4876;42.656;23.292;2024-01-25T06:34:59;94792.34;;;5.91;57.28
9676;BME280;4876;42.656;23.292;2024-01-25T06:37:25;94801.38;;;5.84;58.58
9676;BME280;4876;42.656;23.292;2024-01-25T06:39:50;94798.81;;;5.86;57.07
9676;BME280;4876;42.656;23.292;2024-01-25T06:42:16;94803.03;;;5.87;58.57
9676;BME280;4876;42.656;23.292;2024-01-25T06:44:41;94804.84;;;5.92;58.49
9676;BME280;4876;42.656;23.292;2024-01-25T06:47:07;94803.38;;;5.91;58.25
9676;BME280;4876;42.656;23.292;2024-01-25T06:49:33;94809.81;;;5.86;57.71
9676;BME280;4876;42.656;23.292;2024-01-25T06:51:59;94802.09;;;5.92;58.17
9676;BME280;4876;42.656;23.292;2024-01-25T06:54:24;94802.41;;;5.96;57.71
9676;BME280;4876;42.656;23.292;2024-01-25T06:56:50;94808.09;;;5.98;56.97
9676;BME280;4876;42.656;23.292;2024-01-25T06:59:16;94822.63;;;5.91;57.13
9676;BME280;4876;42.656;23.292;2024-01-25T07:01:42;94826.69;;;5.90;57.62
9676;BME280;4876;42.656;23.292;2024-01-25T07:04:08;94820.78;;;5.93;58.29
9676;BME280;4876;42.656;23.292;2024-01-25T07:06:33;94828.09;;;5.98;57.92
9676;BME280;4876;42.656;23.292;2024-01-25T07:08:59;94814.91;;;5.97;57.32
9676;BME280;4876;42.656;23.292;2024-01-25T07:11:24;94813.59;;;5.98;56.69
9676;BME280;4876;42.656;23.292;2024-01-25T07:13:51;94805.63;;;6.09;57.52
9676;BME280;4876;42.656;23.292;2024-01-25T07:16:16;94797.75;;;6.06;56.99
9676;BME280;4876;42.656;23.292;2024-01-25T07:18:42;94776.69;;;6.01;56.98
9676;BME280;4876;42.656;23.292;2024-01-25T07:21:07;94776.13;;;6.02;56.02
9676;BME280;4876;42.656;23.292;2024-01-25T07:23:33;94773.31;;;6.10;55.63
9676;BME280;4876;42.656;23.292;2024-01-25T07:25:59;94784.72;;;6.06;56.02
9676;BME280;4876;42.656;23.292;2024-01-25T07:28:24;94791.47;;;6.13;56.37
9676;BME280;4876;42.656;23.292;2024-01-25T07:30:51;94786.34;;;6.09;55.74
9676;BME280;4876;42.656;23.292;2024-01-25T07:33:16;94785.91;;;5.96;55.78
9676;BME280;4876;42.656;23.292;2024-01-25T07:35:42;94796.09;;;6.10;55.69
9676;BME280;4876;42.656;23.292;2024-01-25T07:38:11;94800.91;;;6.02;55.92
9676;BME280;4876;42.656;23.292;2024-01-25T07:40:37;94791.56;;;5.98;55.61
9676;BME280;4876;42.656;23.292;2024-01-25T07:43:03;94789.16;;;6.02;56.56
9676;BME280;4876;42.656;23.292;2024-01-25T07:45:28;94795.34;;;6.10;55.82
9676;BME280;4876;42.656;23.292;2024-01-25T07:47:54;94799.78;;;6.05;56.20
9676;BME280;4876;42.656;23.292;2024-01-25T07:50:19;94804.91;;;6.09;55.72
9676;BME280;4876;42.656;23.292;2024-01-25T07:52:47;94802.31;;;6.11;56.12
9676;BME280;4876;42.656;23.292;2024-01-25T07:55:15;94819.22;;;6.07;55.52
9676;BME280;4876;42.656;23.292;2024-01-25T07:57:41;94821.41;;;6.09;55.58
9676;BME280;4876;42.656;23.292;2024-01-25T08:00:10;94818.88;;;6.28;54.91
9676;BME280;4876;42.656;23.292;2024-01-25T08:02:36;94825.47;;;6.33;54.84
9676;BME280;4876;42.656;23.292;2024-01-25T08:05:01;94828.16;;;6.40;54.66
9676;BME280;4876;42.656;23.292;2024-01-25T08:07:28;94822.31;;;6.36;53.83
9676;BME280;4876;42.656;23.292;2024-01-25T08:09:54;94815.63;;;6.47;53.67
9676;BME280;4876;42.656;23.292;2024-01-25T08:12:24;94810.69;;;6.45;54.21
9676;BME280;4876;42.656;23.292;2024-01-25T08:14:49;94809.38;;;6.46;53.73
9676;BME280;4876;42.656;23.292;2024-01-25T08:17:15;94801.78;;;6.54;52.47
9676;BME280;4876;42.656;23.292;2024-01-25T08:19:41;94809.66;;;6.58;53.26
9676;BME280;4876;42.656;23.292;2024-01-25T08:22:06;94811.81;;;6.59;53.47
9676;BME280;4876;42.656;23.292;2024-01-25T08:24:32;94808.19;;;6.57;52.99
9676;BME280;4876;42.656;23.292;2024-01-25T08:26:57;94801.94;;;6.56;53.05
9676;BME280;4876;42.656;23.292;2024-01-25T08:29:23;94794.56;;;6.59;52.62
9676;BME280;4876;42.656;23.292;2024-01-25T08:31:48;94785.41;;;6.56;51.65
9676;BME280;4876;42.656;23.292;2024-01-25T08:34:14;94788.97;;;6.66;52.72
9676;BME280;4876;42.656;23.292;2024-01-25T08:36:40;94792.97;;;6.73;52.70
9676;BME280;4876;42.656;23.292;2024-01-25T08:39:05;94783.81;;;6.70;52.04
9676;BME280;4876;42.656;23.292;2024-01-25T08:41:31;94786.47;;;6.61;53.01
9676;BME280;4876;42.656;23.292;2024-01-25T08:43:56;94804.81;;;6.66;52.22
9676;BME280;4876;42.656;23.292;2024-01-25T08:46:22;94812.84;;;6.71;52.48
9676;BME280;4876;42.656;23.292;2024-01-25T08:48:47;94817.44;;;6.69;52.84
9676;BME280;4876;42.656;23.292;2024-01-25T08:51:13;94802.75;;;6.66;51.51
9676;BME280;4876;42.656;23.292;2024-01-25T08:53:38;94818.00;;;6.67;52.17
9676;BME280;4876;42.656;23.292;2024-01-25T08:56:04;94823.50;;;6.67;52.41
9676;BME280;4876;42.656;23.292;2024-01-25T08:58:30;94832.28;;;6.73;51.91
9676;BME280;4876;42.656;23.292;2024-01-25T09:00:55;94823.56;;;6.85;51.71
9676;BME280;4876;42.656;23.292;2024-01-25T09:03:21;94828.88;;;6.83;51.96
9676;BME280;4876;42.656;23.292;2024-01-25T09:05:48;94827.13;;;6.95;52.33
9676;BME280;4876;42.656;23.292;2024-01-25T09:08:14;94838.31;;;6.97;52.16
9676;BME280;4876;42.656;23.292;2024-01-25T09:10:40;94831.31;;;6.96;51.77
9676;BME280;4876;42.656;23.292;2024-01-25T09:13:06;94828.75;;;6.98;52.04
9676;BME280;4876;42.656;23.292;2024-01-25T09:15:32;94827.28;;;6.97;51.91
9676;BME280;4876;42.656;23.292;2024-01-25T09:17:57;94821.75;;;6.97;51.95
9676;BME280;4876;42.656;23.292;2024-01-25T09:20:23;94827.03;;;7.02;52.37
9676;BME280;4876;42.656;23.292;2024-01-25T09:22:49;94823.63;;;6.94;52.61
9676;BME280;4876;42.656;23.292;2024-01-25T09:25:14;94832.78;;;6.97;51.86
9676;BME280;4876;42.656;23.292;2024-01-25T09:27:40;94819.31;;;7.01;51.61
9676;BME280;4876;42.656;23.292;2024-01-25T09:30:06;94809.69;;;6.92;52.56
9676;BME280;4876;42.656;23.292;2024-01-25T09:32:31;94804.09;;;7.00;51.79
9676;BME280;4876;42.656;23.292;2024-01-25T09:34:57;94814.78;;;6.78;52.03
9676;BME280;4876;42.656;23.292;2024-01-25T09:37:22;94809.59;;;7.00;53.12
9676;BME280;4876;42.656;23.292;2024-01-25T09:39:50;94806.34;;;7.28;52.10
9676;BME280;4876;42.656;23.292;2024-01-25T09:42:17;94807.81;;;7.29;51.43
9676;BME280;4876;42.656;23.292;2024-01-25T09:44:43;94793.44;;;7.30;52.85
9676;BME280;4876;42.656;23.292;2024-01-25T09:47:11;94791.25;;;7.29;51.87
9676;BME280;4876;42.656;23.292;2024-01-25T09:49:37;94786.38;;;7.37;51.85
9676;BME280;4876;42.656;23.292;2024-01-25T09:52:03;94780.38;;;7.31;52.51
9676;BME280;4876;42.656;23.292;2024-01-25T09:54:35;94778.34;;;7.31;51.38
9676;BME280;4876;42.656;23.292;2024-01-25T09:57:05;94775.72;;;7.33;51.34
9676;BME280;4876;42.656;23.292;2024-01-25T09:59:32;94777.84;;;7.43;51.76
9676;BME280;4876;42.656;23.292;2024-01-25T10:01:57;94762.53;;;7.15;52.10
9676;BME280;4876;42.656;23.292;2024-01-25T10:04:24;94760.09;;;7.19;52.16
9676;BME280;4876;42.656;23.292;2024-01-25T10:06:50;94769.56;;;7.25;51.94
9676;BME280;4876;42.656;23.292;2024-01-25T10:09:15;94772.44;;;7.18;52.27
9676;BME280;4876;42.656;23.292;2024-01-25T10:11:41;94757.63;;;7.40;51.67
9676;BME280;4876;42.656;23.292;2024-01-25T10:14:07;94754.53;;;7.36;51.77
9676;BME280;4876;42.656;23.292;2024-01-25T10:16:33;94749.34;;;7.40;51.65
9676;BME280;4876;42.656;23.292;2024-01-25T10:19:01;94755.31;;;7.46;52.15
9676;BME280;4876;42.656;23.292;2024-01-25T10:21:28;94749.50;;;7.42;51.01
9676;BME280;4876;42.656;23.292;2024-01-25T10:23:55;94756.91;;;7.39;52.31
9676;BME280;4876;42.656;23.292;2024-01-25T10:26:26;94751.56;;;7.51;51.37
9676;BME280;4876;42.656;23.292;2024-01-25T10:28:55;94748.41;;;7.28;52.58
9676;BME280;4876;42.656;23.292;2024-01-25T10:31:24;94754.94;;;7.50;52.67
9676;BME280;4876;42.656;23.292;2024-01-25T10:33:52;94745.66;;;7.55;52.21
9676;BME280;4876;42.656;23.292;2024-01-25T10:36:22;94746.53;;;7.57;51.17
9676;BME280;4876;42.656;23.292;2024-01-25T10:38:49;94747.41;;;7.60;51.50
9676;BME280;4876;42.656;23.292;2024-01-25T10:41:18;94751.16;;;7.81;51.39
9676;BME280;4876;42.656;23.292;2024-01-25T10:43:44;94752.06;;;7.57;51.32
9676;BME280;4876;42.656;23.292;2024-01-25T10:46:10;94742.78;;;7.62;51.13
9676;BME280;4876;42.656;23.292;2024-01-25T10:48:37;94720.59;;;7.70;51.11
9676;BME280;4876;42.656;23.292;2024-01-25T10:51:04;94731.84;;;7.81;50.44
9676;BME280;4876;42.656;23.292;2024-01-25T10:53:32;94730.44;;;7.90;49.78
9676;BME280;4876;42.656;23.292;2024-01-25T10:55:59;94726.56;;;7.76;48.81
9676;BME280;4876;42.656;23.292;2024-01-25T10:58:30;94722.41;;;7.84;48.44
9676;BME280;4876;42.656;23.292;2024-01-25T11:00:55;94730.13;;;7.95;48.46
9676;BME280;4876;42.656;23.292;2024-01-25T11:03:26;94731.88;;;7.91;48.21
9676;BME280;4876;42.656;23.292;2024-01-25T11:05:54;94717.50;;;7.92;48.23
9676;BME280;4876;42.656;23.292;2024-01-25T11:08:20;94717.78;;;7.96;48.53
9676;BME280;4876;42.656;23.292;2024-01-25T11:10:52;94699.59;;;7.84;48.36
9676;BME280;4876;42.656;23.292;2024-01-25T11:13:24;94697.09;;;7.78;48.71
9676;BME280;4876;42.656;23.292;2024-01-25T11:15:51;94685.56;;;7.72;49.66
9676;BME280;4876;42.656;23.292;2024-01-25T11:18:16;94687.94;;;7.85;48.27
9676;BME280;4876;42.656;23.292;2024-01-25T11:20:42;94675.00;;;7.78;48.32
9676;BME280;4876;42.656;23.292;2024-01-25T11:23:08;94662.47;;;7.77;49.28
9676;BME280;4876;42.656;23.292;2024-01-25T11:25:36;94672.34;;;7.71;49.25
9676;BME280;4876;42.656;23.292;2024-01-25T11:28:03;94666.19;;;7.53;48.85
9676;BME280;4876;42.656;23.292;2024-01-25T11:30:33;94662.34;;;7.39;50.63
9676;BME280;4876;42.656;23.292;2024-01-25T11:33:00;94675.13;;;7.34;50.04
9676;BME280;4876;42.656;23.292;2024-01-25T11:35:25;94676.50;;;7.26;50.10
9676;BME280;4876;42.656;23.292;2024-01-25T11:37:52;94665.06;;;7.29;49.95
9676;BME280;4876;42.656;23.292;2024-01-25T11:40:18;94656.72;;;7.20;49.87
9676;BME280;4876;42.656;23.292;2024-01-25T11:42:47;94665.25;;;7.14;49.93
9676;BME280;4876;42.656;23.292;2024-01-25T11:45:13;94665.00;;;7.20;50.71
9676;BME280;4876;42.656;23.292;2024-01-25T11:47:40;94658.72;;;7.10;49.76
9676;BME280;4876;42.656;23.292;2024-01-25T11:50:07;94671.41;;;7.22;50.63
9676;BME280;4876;42.656;23.292;2024-01-25T11:52:34;94670.13;;;7.23;49.86
9676;BME280;4876;42.656;23.292;2024-01-25T11:55:04;94658.94;;;7.21;50.62
9676;BME280;4876;42.656;23.292;2024-01-25T11:57:40;94655.09;;;7.17;50.33
9676;BME280;4876;42.656;23.292;2024-01-25T12:00:09;94659.97;;;7.26;50.14
9676;BME280;4876;42.656;23.292;2024-01-25T12:02:38;94664.75;;;7.25;50.32
9676;BME280;4876;42.656;23.292;2024-01-25T12:05:04;94674.63;;;7.28;50.81
9676;BME280;4876;42.656;23.292;2024-01-25T12:07:30;94675.66;;;7.33;50.13
9676;BME280;4876;42.656;23.292;2024-01-25T12:10:05;94677.94;;;7.27;49.34
9676;BME280;4876;42.656;23.292;2024-01-25T12:12:31;94682.13;;;7.18;49.83
9676;BME280;4876;42.656;23.292;2024-01-25T12:15:00;94665.38;;;7.07;49.71
9676;BME280;4876;42.656;23.292;2024-01-25T12:17:30;94668.28;;;7.09;50.30
9676;BME280;4876;42.656;23.292;2024-01-25T12:19:56;94658.22;;;7.04;49.93
9676;BME280;4876;42.656;23.292;2024-01-25T12:22:23;94646.06;;;7.07;50.39
9676;BME280;4876;42.656;23.292;2024-01-25T12:24:50;94645.19;;;7.04;49.74
9676;BME280;4876;42.656;23.292;2024-01-25T12:27:15;94640.53;;;7.07;49.98
9676;BME280;4876;42.656;23.292;2024-01-25T12:29:41;94640.63;;;7.16;49.41
9676;BME280;4876;42.656;23.292;2024-01-25T12:32:09;94650.91;;;7.16;49.77
9676;BME280;4876;42.656;23.292;2024-01-25T12:34:34;94645.16;;;7.31;49.56
9676;BME280;4876;42.656;23.292;2024-01-25T12:37:02;94648.06;;;7.33;50.24
9676;BME280;4876;42.656;23.292;2024-01-25T12:39:28;94641.41;;;7.36;49.66
9676;BME280;4876;42.656;23.292;2024-01-25T12:41:53;94640.56;;;7.43;48.64
9676;BME280;4876;42.656;23.292;2024-01-25T12:44:19;94619.69;;;7.50;48.90
9676;BME280;4876;42.656;23.292;2024-01-25T12:46:44;94613.44;;;7.49;49.02
9676;BME280;4876;42.656;23.292;2024-01-25T12:49:10;94598.78;;;7.56;49.20
9676;BME280;4876;42.656;23.292;2024-01-25T12:51:36;94612.63;;;7.75;48.74
9676;BME280;4876;42.656;23.292;2024-01-25T12:54:01;94577.91;;;7.72;47.39
9676;BME280;4876;42.656;23.292;2024-01-25T12:56:27;94589.81;;;7.65;47.83
9676;BME280;4876;42.656;23.292;2024-01-25T12:58:52;94572.66;;;7.57;47.58
9676;BME280;4876;42.656;23.292;2024-01-25T13:01:18;94582.81;;;7.64;46.68
9676;BME280;4876;42.656;23.292;2024-01-25T13:03:44;94583.13;;;7.68;47.10
9676;BME280;4876;42.656;23.292;2024-01-25T13:06:12;94584.16;;;7.63;47.12
9676;BME280;4876;42.656;23.292;2024-01-25T13:08:38;94595.94;;;7.73;47.74
9676;BME280;4876;42.656;23.292;2024-01-25T13:11:03;94592.59;;;7.75;47.71
9676;BME280;4876;42.656;23.292;2024-01-25T13:13:29;94576.63;;;7.83;47.59
9676;BME280;4876;42.656;23.292;2024-01-25T13:15:54;94573.09;;;7.63;47.23